sensor_id;sensor_type;location;lat;lon;timestamp;P1;durP1;ratioP1;P2;durP2;ratioP2
56519;SDS011;42420;53.586;10.052;2022-12-04T00:01:20;39.67;;;20.17;;
56519;SDS011;42420;53.586;10.052;2022-12-04T00:06:18;40.22;;;22.20;;
56519;SDS011;42420;53.586;10.052;2022-12-04T00:11:17;41.28;;;21.98;;
56519;SDS011;42420;53.586;10.052;2022-12-04T00:16:16;36.72;;;20.60;;
56519;SDS011;42420;53.586;10.052;2022-12-04T00:21:15;38.42;;;20.73;;
56519;SDS011;42420;53.586;10.052;2022-12-04T00:26:13;36.88;;;19.80;;
56519;SDS011;42420;53.586;10.052;2022-12-04T00:31:12;38.08;;;20.05;;
56519;SDS011;42420;53.586;10.052;2022-12-04T00:36:12;38.33;;;21.02;;
56519;SDS011;42420;53.586;10.052;2022-12-04T00:41:11;32.40;;;17.80;;
56519;SDS011;42420;53.586;10.052;2022-12-04T00:46:09;37.80;;;20.73;;
56519;SDS011;42420;53.586;10.052;2022-12-04T00:51:07;35.25;;;19.27;;
56519;SDS011;42420;53.586;10.052;2022-12-04T00:56:06;34.40;;;18.50;;
56519;SDS011;42420;53.586;10.052;2022-12-04T01:06:05;36.58;;;20.33;;
56519;SDS011;42420;53.586;10.052;2022-12-04T01:11:04;36.80;;;19.52;;
56519;SDS011;42420;53.586;10.052;2022-12-04T01:16:02;35.17;;;19.88;;
56519;SDS011;42420;53.586;10.052;2022-12-04T01:20:58;36.85;;;19.25;;
56519;SDS011;42420;53.586;10.052;2022-12-04T01:25:56;25.13;;;13.68;;
56519;SDS011;42420;53.586;10.052;2022-12-04T01:31:06;35.88;;;19.50;;
56519;SDS011;42420;53.586;10.052;2022-12-04T01:36:06;41.45;;;20.60;;
56519;SDS011;42420;53.586;10.052;2022-12-04T01:41:05;36.90;;;18.63;;
56519;SDS011;42420;53.586;10.052;2022-12-04T01:46:02;39.40;;;19.75;;
56519;SDS011;42420;53.586;10.052;2022-12-04T01:56:01;38.40;;;19.90;;
56519;SDS011;42420;53.586;10.052;2022-12-04T02:00:59;38.80;;;20.38;;
56519;SDS011;42420;53.586;10.052;2022-12-04T02:06:04;41.05;;;20.70;;
56519;SDS011;42420;53.586;10.052;2022-12-04T02:21:35;39.40;;;19.98;;
56519;SDS011;42420;53.586;10.052;2022-12-04T02:31:58;38.25;;;19.73;;
56519;SDS011;42420;53.586;10.052;2022-12-04T02:37:07;36.67;;;18.27;;
56519;SDS011;42420;53.586;10.052;2022-12-04T02:42:11;35.42;;;17.70;;
56519;SDS011;42420;53.586;10.052;2022-12-04T02:47:12;37.78;;;18.92;;
56519;SDS011;42420;53.586;10.052;2022-12-04T02:52:11;38.08;;;19.00;;
56519;SDS011;42420;53.586;10.052;2022-12-04T02:57:10;40.70;;;20.00;;
56519;SDS011;42420;53.586;10.052;2022-12-04T03:02:12;38.33;;;20.75;;
56519;SDS011;42420;53.586;10.052;2022-12-04T03:07:13;37.75;;;19.52;;
56519;SDS011;42420;53.586;10.052;2022-12-04T03:17:13;39.80;;;19.35;;
56519;SDS011;42420;53.586;10.052;2022-12-04T03:22:12;34.58;;;17.95;;
56519;SDS011;42420;53.586;10.052;2022-12-04T03:27:31;40.50;;;19.42;;
56519;SDS011;42420;53.586;10.052;2022-12-04T03:32:38;38.28;;;19.35;;
56519;SDS011;42420;53.586;10.052;2022-12-04T03:37:40;40.28;;;19.92;;
56519;SDS011;42420;53.586;10.052;2022-12-04T03:42:59;37.17;;;19.20;;
56519;SDS011;42420;53.586;10.052;2022-12-04T03:47:58;36.50;;;19.23;;
56519;SDS011;42420;53.586;10.052;2022-12-04T03:53:03;35.83;;;19.60;;
56519;SDS011;42420;53.586;10.052;2022-12-04T03:58:04;37.45;;;19.45;;
56519;SDS011;42420;53.586;10.052;2022-12-04T04:03:08;37.50;;;19.42;;
56519;SDS011;42420;53.586;10.052;2022-12-04T04:08:08;40.08;;;18.73;;
56519;SDS011;42420;53.586;10.052;2022-12-04T04:13:37;37.65;;;18.45;;
56519;SDS011;42420;53.586;10.052;2022-12-04T04:18:58;39.28;;;20.02;;
56519;SDS011;42420;53.586;10.052;2022-12-04T04:24:21;39.30;;;19.40;;
56519;SDS011;42420;53.586;10.052;2022-12-04T04:29:23;35.47;;;18.27;;
56519;SDS011;42420;53.586;10.052;2022-12-04T04:39:34;37.40;;;20.17;;
56519;SDS011;42420;53.586;10.052;2022-12-04T04:49:33;36.05;;;18.77;;
56519;SDS011;42420;53.586;10.052;2022-12-04T04:54:31;37.25;;;19.63;;
56519;SDS011;42420;53.586;10.052;2022-12-04T04:59:29;40.72;;;20.75;;
56519;SDS011;42420;53.586;10.052;2022-12-04T05:04:25;36.55;;;18.92;;
56519;SDS011;42420;53.586;10.052;2022-12-04T05:09:22;38.92;;;19.60;;
56519;SDS011;42420;53.586;10.052;2022-12-04T05:14:19;41.05;;;20.98;;
56519;SDS011;42420;53.586;10.052;2022-12-04T05:19:15;38.25;;;18.45;;
56519;SDS011;42420;53.586;10.052;2022-12-04T05:24:30;41.13;;;20.92;;
56519;SDS011;42420;53.586;10.052;2022-12-04T05:29:27;35.75;;;19.67;;
56519;SDS011;42420;53.586;10.052;2022-12-04T05:34:30;36.40;;;19.85;;
56519;SDS011;42420;53.586;10.052;2022-12-04T05:39:27;39.20;;;20.65;;
56519;SDS011;42420;53.586;10.052;2022-12-04T05:44:23;39.17;;;19.83;;
56519;SDS011;42420;53.586;10.052;2022-12-04T05:49:20;37.58;;;18.80;;
56519;SDS011;42420;53.586;10.052;2022-12-04T05:54:17;41.72;;;20.83;;
56519;SDS011;42420;53.586;10.052;2022-12-04T06:04:10;35.47;;;18.75;;
56519;SDS011;42420;53.586;10.052;2022-12-04T06:09:07;39.92;;;19.13;;
56519;SDS011;42420;53.586;10.052;2022-12-04T06:14:05;38.42;;;19.48;;
56519;SDS011;42420;53.586;10.052;2022-12-04T06:19:05;39.33;;;20.17;;
56519;SDS011;42420;53.586;10.052;2022-12-04T06:24:07;35.33;;;19.33;;
56519;SDS011;42420;53.586;10.052;2022-12-04T06:29:05;40.45;;;20.00;;
56519;SDS011;42420;53.586;10.052;2022-12-04T06:34:02;42.45;;;21.08;;
56519;SDS011;42420;53.586;10.052;2022-12-04T06:38:58;40.30;;;19.67;;
56519;SDS011;42420;53.586;10.052;2022-12-04T06:43:55;42.42;;;21.08;;
56519;SDS011;42420;53.586;10.052;2022-12-04T06:48:52;45.10;;;20.77;;
56519;SDS011;42420;53.586;10.052;2022-12-04T06:53:50;39.95;;;20.08;;
56519;SDS011;42420;53.586;10.052;2022-12-04T07:03:44;38.50;;;19.13;;
56519;SDS011;42420;53.586;10.052;2022-12-04T07:08:47;45.58;;;22.50;;
56519;SDS011;42420;53.586;10.052;2022-12-04T07:13:45;46.60;;;21.80;;
56519;SDS011;42420;53.586;10.052;2022-12-04T07:23:39;45.55;;;21.60;;
56519;SDS011;42420;53.586;10.052;2022-12-04T07:28:36;41.90;;;21.40;;
56519;SDS011;42420;53.586;10.052;2022-12-04T07:38:29;48.28;;;21.95;;
56519;SDS011;42420;53.586;10.052;2022-12-04T07:43:27;41.55;;;20.95;;
56519;SDS011;42420;53.586;10.052;2022-12-04T07:48:24;43.72;;;21.45;;
56519;SDS011;42420;53.586;10.052;2022-12-04T07:53:33;42.22;;;22.05;;
56519;SDS011;42420;53.586;10.052;2022-12-04T07:59:22;48.63;;;23.38;;
56519;SDS011;42420;53.586;10.052;2022-12-04T08:04:19;43.55;;;20.95;;
56519;SDS011;42420;53.586;10.052;2022-12-04T08:09:16;46.88;;;21.98;;
56519;SDS011;42420;53.586;10.052;2022-12-04T08:14:12;38.88;;;17.80;;
56519;SDS011;42420;53.586;10.052;2022-12-04T08:19:10;44.47;;;21.10;;
56519;SDS011;42420;53.586;10.052;2022-12-04T08:24:07;43.25;;;21.42;;
56519;SDS011;42420;53.586;10.052;2022-12-04T08:29:04;52.22;;;23.92;;
56519;SDS011;42420;53.586;10.052;2022-12-04T08:34:03;47.13;;;22.23;;
56519;SDS011;42420;53.586;10.052;2022-12-04T08:39:01;43.25;;;21.67;;
56519;SDS011;42420;53.586;10.052;2022-12-04T08:43:58;42.53;;;21.70;;
56519;SDS011;42420;53.586;10.052;2022-12-04T08:48:56;44.22;;;21.38;;
56519;SDS011;42420;53.586;10.052;2022-12-04T08:58:50;42.60;;;20.55;;
56519;SDS011;42420;53.586;10.052;2022-12-04T09:03:47;44.30;;;20.98;;
56519;SDS011;42420;53.586;10.052;2022-12-04T09:08:44;44.10;;;20.48;;
56519;SDS011;42420;53.586;10.052;2022-12-04T09:13:40;44.78;;;21.90;;
56519;SDS011;42420;53.586;10.052;2022-12-04T09:18:38;41.83;;;20.25;;
56519;SDS011;42420;53.586;10.052;2022-12-04T09:23:35;41.03;;;20.75;;
56519;SDS011;42420;53.586;10.052;2022-12-04T09:28:33;43.67;;;21.20;;
56519;SDS011;42420;53.586;10.052;2022-12-04T09:33:30;40.72;;;21.25;;
56519;SDS011;42420;53.586;10.052;2022-12-04T09:38:28;43.22;;;21.30;;
56519;SDS011;42420;53.586;10.052;2022-12-04T09:48:24;41.72;;;20.25;;
56519;SDS011;42420;53.586;10.052;2022-12-04T09:53:32;39.47;;;20.48;;
56519;SDS011;42420;53.586;10.052;2022-12-04T09:58:46;38.10;;;20.38;;
56519;SDS011;42420;53.586;10.052;2022-12-04T10:03:47;40.50;;;19.52;;
56519;SDS011;42420;53.586;10.052;2022-12-04T10:09:34;37.38;;;18.27;;
56519;SDS011;42420;53.586;10.052;2022-12-04T10:14:23;38.72;;;19.85;;
56519;SDS011;42420;53.586;10.052;2022-12-04T10:24:43;33.75;;;18.67;;
56519;SDS011;42420;53.586;10.052;2022-12-04T10:29:51;35.05;;;18.15;;
56519;SDS011;42420;53.586;10.052;2022-12-04T10:34:56;34.83;;;18.73;;
56519;SDS011;42420;53.586;10.052;2022-12-04T10:40:08;43.47;;;19.05;;
56519;SDS011;42420;53.586;10.052;2022-12-04T10:45:20;40.78;;;19.35;;
56519;SDS011;42420;53.586;10.052;2022-12-04T10:50:25;37.17;;;18.58;;
56519;SDS011;42420;53.586;10.052;2022-12-04T10:55:35;33.75;;;18.35;;
56519;SDS011;42420;53.586;10.052;2022-12-04T11:00:34;36.63;;;19.17;;
56519;SDS011;42420;53.586;10.052;2022-12-04T11:05:54;38.38;;;19.77;;
56519;SDS011;42420;53.586;10.052;2022-12-04T11:11:01;35.20;;;19.40;;
56519;SDS011;42420;53.586;10.052;2022-12-04T11:16:07;37.60;;;19.45;;
56519;SDS011;42420;53.586;10.052;2022-12-04T11:21:05;31.95;;;16.40;;
56519;SDS011;42420;53.586;10.052;2022-12-04T11:26:11;32.95;;;18.00;;
56519;SDS011;42420;53.586;10.052;2022-12-04T11:31:15;38.33;;;20.00;;
56519;SDS011;42420;53.586;10.052;2022-12-04T11:41:24;33.47;;;18.27;;
56519;SDS011;42420;53.586;10.052;2022-12-04T11:46:25;32.97;;;18.80;;
56519;SDS011;42420;53.586;10.052;2022-12-04T11:56:39;33.40;;;17.70;;
56519;SDS011;42420;53.586;10.052;2022-12-04T12:07:17;37.35;;;17.65;;
56519;SDS011;42420;53.586;10.052;2022-12-04T12:12:24;33.53;;;18.67;;
56519;SDS011;42420;53.586;10.052;2022-12-04T12:17:31;35.00;;;19.65;;
56519;SDS011;42420;53.586;10.052;2022-12-04T12:22:52;34.67;;;18.45;;
56519;SDS011;42420;53.586;10.052;2022-12-04T12:33:59;37.92;;;17.85;;
56519;SDS011;42420;53.586;10.052;2022-12-04T12:39:47;29.65;;;15.68;;
56519;SDS011;42420;53.586;10.052;2022-12-04T12:44:52;32.08;;;17.95;;
56519;SDS011;42420;53.586;10.052;2022-12-04T12:56:08;29.95;;;14.63;;
56519;SDS011;42420;53.586;10.052;2022-12-04T13:00:46;31.33;;;16.30;;
56519;SDS011;42420;53.586;10.052;2022-12-04T13:05:58;33.70;;;18.10;;
56519;SDS011;42420;53.586;10.052;2022-12-04T13:16:11;31.15;;;17.63;;
56519;SDS011;42420;53.586;10.052;2022-12-04T13:21:26;33.22;;;17.23;;
56519;SDS011;42420;53.586;10.052;2022-12-04T13:26:44;30.45;;;16.58;;
56519;SDS011;42420;53.586;10.052;2022-12-04T13:42:50;28.63;;;15.98;;
56519;SDS011;42420;53.586;10.052;2022-12-04T13:47:56;31.55;;;16.80;;
56519;SDS011;42420;53.586;10.052;2022-12-04T13:53:04;29.73;;;15.25;;
56519;SDS011;42420;53.586;10.052;2022-12-04T14:03:29;27.25;;;14.05;;
56519;SDS011;42420;53.586;10.052;2022-12-04T14:08:29;29.65;;;15.93;;
56519;SDS011;42420;53.586;10.052;2022-12-04T14:19:21;31.35;;;16.33;;
56519;SDS011;42420;53.586;10.052;2022-12-04T14:34:53;29.70;;;16.88;;
56519;SDS011;42420;53.586;10.052;2022-12-04T14:39:59;31.38;;;18.15;;
56519;SDS011;42420;53.586;10.052;2022-12-04T14:56:23;33.53;;;16.77;;
56519;SDS011;42420;53.586;10.052;2022-12-04T15:01:41;36.30;;;18.13;;
56519;SDS011;42420;53.586;10.052;2022-12-04T15:12:11;37.17;;;19.67;;
56519;SDS011;42420;53.586;10.052;2022-12-04T15:17:37;38.58;;;20.15;;
56519;SDS011;42420;53.586;10.052;2022-12-04T15:22:41;36.67;;;19.27;;
56519;SDS011;42420;53.586;10.052;2022-12-04T15:27:46;37.05;;;19.00;;
56519;SDS011;42420;53.586;10.052;2022-12-04T15:32:48;38.25;;;18.88;;
56519;SDS011;42420;53.586;10.052;2022-12-04T15:37:55;38.28;;;19.90;;
56519;SDS011;42420;53.586;10.052;2022-12-04T15:43:04;39.03;;;20.15;;
56519;SDS011;42420;53.586;10.052;2022-12-04T15:48:08;37.03;;;18.10;;
56519;SDS011;42420;53.586;10.052;2022-12-04T15:53:07;37.25;;;18.75;;
56519;SDS011;42420;53.586;10.052;2022-12-04T15:58:20;36.50;;;19.40;;
56519;SDS011;42420;53.586;10.052;2022-12-04T16:08:43;34.78;;;17.90;;
56519;SDS011;42420;53.586;10.052;2022-12-04T16:14:02;32.97;;;18.67;;
56519;SDS011;42420;53.586;10.052;2022-12-04T16:19:33;31.40;;;15.60;;
56519;SDS011;42420;53.586;10.052;2022-12-04T16:24:34;31.77;;;17.88;;
56519;SDS011;42420;53.586;10.052;2022-12-04T16:29:34;35.00;;;17.73;;
56519;SDS011;42420;53.586;10.052;2022-12-04T16:34:31;32.75;;;16.85;;
56519;SDS011;42420;53.586;10.052;2022-12-04T16:39:35;33.40;;;17.95;;
56519;SDS011;42420;53.586;10.052;2022-12-04T16:44:37;28.88;;;16.60;;
56519;SDS011;42420;53.586;10.052;2022-12-04T16:49:36;33.20;;;16.75;;
56519;SDS011;42420;53.586;10.052;2022-12-04T16:59:32;31.33;;;17.17;;
56519;SDS011;42420;53.586;10.052;2022-12-04T17:04:29;29.52;;;16.30;;
56519;SDS011;42420;53.586;10.052;2022-12-04T17:09:26;33.13;;;16.65;;
56519;SDS011;42420;53.586;10.052;2022-12-04T17:14:23;32.20;;;16.67;;
56519;SDS011;42420;53.586;10.052;2022-12-04T17:19:20;31.90;;;16.15;;
56519;SDS011;42420;53.586;10.052;2022-12-04T17:24:17;31.00;;;16.90;;
56519;SDS011;42420;53.586;10.052;2022-12-04T17:29:13;32.28;;;17.40;;
56519;SDS011;42420;53.586;10.052;2022-12-04T17:34:10;31.40;;;16.35;;
56519;SDS011;42420;53.586;10.052;2022-12-04T17:39:07;29.48;;;15.88;;
56519;SDS011;42420;53.586;10.052;2022-12-04T17:44:06;32.80;;;15.70;;
56519;SDS011;42420;53.586;10.052;2022-12-04T17:49:03;26.48;;;12.60;;
56519;SDS011;42420;53.586;10.052;2022-12-04T17:54:04;30.10;;;15.48;;
56519;SDS011;42420;53.586;10.052;2022-12-04T17:59:07;30.98;;;16.10;;
56519;SDS011;42420;53.586;10.052;2022-12-04T18:04:07;27.83;;;15.15;;
56519;SDS011;42420;53.586;10.052;2022-12-04T18:09:20;24.45;;;14.55;;
56519;SDS011;42420;53.586;10.052;2022-12-04T18:14:22;22.90;;;13.93;;
56519;SDS011;42420;53.586;10.052;2022-12-04T18:19:23;23.58;;;13.02;;
56519;SDS011;42420;53.586;10.052;2022-12-04T18:24:22;23.95;;;13.20;;
56519;SDS011;42420;53.586;10.052;2022-12-04T18:29:21;23.52;;;13.93;;
56519;SDS011;42420;53.586;10.052;2022-12-04T18:34:20;24.80;;;13.60;;
56519;SDS011;42420;53.586;10.052;2022-12-04T18:39:18;24.83;;;13.10;;
56519;SDS011;42420;53.586;10.052;2022-12-04T18:44:19;24.40;;;13.82;;
56519;SDS011;42420;53.586;10.052;2022-12-04T18:49:19;23.55;;;13.20;;
56519;SDS011;42420;53.586;10.052;2022-12-04T18:54:20;25.02;;;14.25;;
56519;SDS011;42420;53.586;10.052;2022-12-04T18:59:22;24.45;;;14.25;;
56519;SDS011;42420;53.586;10.052;2022-12-04T19:04:20;25.52;;;15.43;;
56519;SDS011;42420;53.586;10.052;2022-12-04T19:09:20;27.20;;;14.80;;
56519;SDS011;42420;53.586;10.052;2022-12-04T19:14:42;25.92;;;14.65;;
56519;SDS011;42420;53.586;10.052;2022-12-04T19:19:39;28.02;;;14.98;;
56519;SDS011;42420;53.586;10.052;2022-12-04T19:24:36;27.80;;;14.85;;
56519;SDS011;42420;53.586;10.052;2022-12-04T19:29:36;29.23;;;16.25;;
56519;SDS011;42420;53.586;10.052;2022-12-04T19:34:39;29.65;;;16.30;;
56519;SDS011;42420;53.586;10.052;2022-12-04T19:39:39;27.08;;;14.93;;
56519;SDS011;42420;53.586;10.052;2022-12-04T19:44:38;28.42;;;15.63;;
56519;SDS011;42420;53.586;10.052;2022-12-04T19:49:44;29.75;;;16.67;;
56519;SDS011;42420;53.586;10.052;2022-12-04T19:54:41;25.42;;;15.32;;
56519;SDS011;42420;53.586;10.052;2022-12-04T19:59:38;24.92;;;15.13;;
56519;SDS011;42420;53.586;10.052;2022-12-04T20:04:42;25.63;;;15.27;;
56519;SDS011;42420;53.586;10.052;2022-12-04T20:09:43;27.02;;;15.38;;
56519;SDS011;42420;53.586;10.052;2022-12-04T20:14:47;30.27;;;15.60;;
56519;SDS011;42420;53.586;10.052;2022-12-04T20:19:47;31.90;;;15.85;;
56519;SDS011;42420;53.586;10.052;2022-12-04T20:24:44;27.60;;;15.02;;
56519;SDS011;42420;53.586;10.052;2022-12-04T20:29:41;26.98;;;15.57;;
56519;SDS011;42420;53.586;10.052;2022-12-04T20:34:41;25.63;;;13.45;;
56519;SDS011;42420;53.586;10.052;2022-12-04T20:39:39;26.92;;;14.40;;
56519;SDS011;42420;53.586;10.052;2022-12-04T20:44:37;25.77;;;14.77;;
56519;SDS011;42420;53.586;10.052;2022-12-04T20:49:37;21.05;;;12.80;;
56519;SDS011;42420;53.586;10.052;2022-12-04T20:54:36;28.48;;;15.02;;
56519;SDS011;42420;53.586;10.052;2022-12-04T20:59:37;26.67;;;14.32;;
56519;SDS011;42420;53.586;10.052;2022-12-04T21:04:36;25.83;;;14.75;;
56519;SDS011;42420;53.586;10.052;2022-12-04T21:09:35;25.30;;;14.23;;
56519;SDS011;42420;53.586;10.052;2022-12-04T21:14:32;26.90;;;14.57;;
56519;SDS011;42420;53.586;10.052;2022-12-04T21:19:48;25.73;;;14.48;;
56519;SDS011;42420;53.586;10.052;2022-12-04T21:24:48;29.35;;;15.95;;
56519;SDS011;42420;53.586;10.052;2022-12-04T21:29:49;25.30;;;14.43;;
